sensor_id;sensor_type;location;lat;lon;timestamp;temperature;humidity
35463;DHT22;21578;47.892;9.970;2024-02-28T00:01:50;6.20;96.60
35463;DHT22;21578;47.892;9.970;2024-02-28T00:06:38;6.20;96.60
35463;DHT22;21578;47.892;9.970;2024-02-28T00:11:25;6.20;96.60
35463;DHT22;21578;47.892;9.970;2024-02-28T00:16:12;6.20;96.60
35463;DHT22;21578;47.892;9.970;2024-02-28T00:20:58;6.20;96.60
35463;DHT22;21578;47.892;9.970;2024-02-28T00:25:46;6.20;96.60
35463;DHT22;21578;47.892;9.970;2024-02-28T00:30:33;6.10;96.60
35463;DHT22;21578;47.892;9.970;2024-02-28T00:35:20;6.10;96.60
35463;DHT22;21578;47.892;9.970;2024-02-28T00:40:09;6.20;96.60
35463;DHT22;21578;47.892;9.970;2024-02-28T00:44:57;6.20;96.60
35463;DHT22;21578;47.892;9.970;2024-02-28T00:49:43;6.20;96.60
35463;DHT22;21578;47.892;9.970;2024-02-28T00:54:30;6.20;96.60
35463;DHT22;21578;47.892;9.970;2024-02-28T00:59:17;6.20;96.60
35463;DHT22;21578;47.892;9.970;2024-02-28T01:04:05;6.20;96.60
35463;DHT22;21578;47.892;9.970;2024-02-28T01:08:53;6.20;96.60
35463;DHT22;21578;47.892;9.970;2024-02-28T01:13:39;6.20;96.60
35463;DHT22;21578;47.892;9.970;2024-02-28T01:18:26;6.20;96.60
35463;DHT22;21578;47.892;9.970;2024-02-28T01:23:17;6.10;96.60
35463;DHT22;21578;47.892;9.970;2024-02-28T01:28:04;6.10;96.60
35463;DHT22;21578;47.892;9.970;2024-02-28T01:32:51;6.10;96.60
35463;DHT22;21578;47.892;9.970;2024-02-28T01:37:38;6.00;96.60
35463;DHT22;21578;47.892;9.970;2024-02-28T01:42:26;6.10;96.60
35463;DHT22;21578;47.892;9.970;2024-02-28T01:47:13;6.10;96.60
35463;DHT22;21578;47.892;9.970;2024-02-28T01:52:00;6.00;96.60
35463;DHT22;21578;47.892;9.970;2024-02-28T01:56:47;6.10;96.60
35463;DHT22;21578;47.892;9.970;2024-02-28T02:01:36;6.10;96.60
35463;DHT22;21578;47.892;9.970;2024-02-28T02:06:23;6.10;96.60
35463;DHT22;21578;47.892;9.970;2024-02-28T02:11:09;6.10;96.60
35463;DHT22;21578;47.892;9.970;2024-02-28T02:15:56;6.10;96.60
35463;DHT22;21578;47.892;9.970;2024-02-28T02:20:48;6.00;96.60
35463;DHT22;21578;47.892;9.970;2024-02-28T02:25:44;6.00;96.60
35463;DHT22;21578;47.892;9.970;2024-02-28T02:30:31;5.90;96.60
35463;DHT22;21578;47.892;9.970;2024-02-28T02:35:18;5.80;96.60
35463;DHT22;21578;47.892;9.970;2024-02-28T02:40:05;5.70;96.60
35463;DHT22;21578;47.892;9.970;2024-02-28T02:44:53;5.60;96.60
35463;DHT22;21578;47.892;9.970;2024-02-28T02:49:40;5.60;96.60
35463;DHT22;21578;47.892;9.970;2024-02-28T02:54:27;5.60;96.60
35463;DHT22;21578;47.892;9.970;2024-02-28T02:59:13;5.60;96.60
35463;DHT22;21578;47.892;9.970;2024-02-28T03:04:01;5.60;96.60
35463;DHT22;21578;47.892;9.970;2024-02-28T03:08:48;5.60;96.60
35463;DHT22;21578;47.892;9.970;2024-02-28T03:13:35;5.50;96.60
35463;DHT22;21578;47.892;9.970;2024-02-28T03:18:21;5.50;96.60
35463;DHT22;21578;47.892;9.970;2024-02-28T03:23:09;5.50;96.60
35463;DHT22;21578;47.892;9.970;2024-02-28T03:27:56;5.50;96.60
35463;DHT22;21578;47.892;9.970;2024-02-28T03:32:43;5.40;96.60
35463;DHT22;21578;47.892;9.970;2024-02-28T03:37:29;5.40;96.60
35463;DHT22;21578;47.892;9.970;2024-02-28T03:42:18;5.30;96.60
35463;DHT22;21578;47.892;9.970;2024-02-28T03:47:05;5.30;96.60
35463;DHT22;21578;47.892;9.970;2024-02-28T03:51:51;5.30;96.60
35463;DHT22;21578;47.892;9.970;2024-02-28T03:56:38;5.30;96.60
35463;DHT22;21578;47.892;9.970;2024-02-28T04:01:26;5.30;96.60
35463;DHT22;21578;47.892;9.970;2024-02-28T04:06:13;5.30;96.60
35463;DHT22;21578;47.892;9.970;2024-02-28T04:11:00;5.30;96.60
35463;DHT22;21578;47.892;9.970;2024-02-28T04:15:46;5.30;96.60
35463;DHT22;21578;47.892;9.970;2024-02-28T04:20:34;5.20;96.60
35463;DHT22;21578;47.892;9.970;2024-02-28T04:25:21;5.30;96.60
35463;DHT22;21578;47.892;9.970;2024-02-28T04:30:08;5.30;96.60
35463;DHT22;21578;47.892;9.970;2024-02-28T04:34:55;5.30;96.60
35463;DHT22;21578;47.892;9.970;2024-02-28T04:39:43;5.40;96.60
35463;DHT22;21578;47.892;9.970;2024-02-28T04:44:29;5.40;96.60
35463;DHT22;21578;47.892;9.970;2024-02-28T04:49:16;5.30;96.60
35463;DHT22;21578;47.892;9.970;2024-02-28T04:54:03;5.30;96.60
35463;DHT22;21578;47.892;9.970;2024-02-28T04:58:51;5.20;96.60
35463;DHT22;21578;47.892;9.970;2024-02-28T05:03:38;5.20;96.60
35463;DHT22;21578;47.892;9.970;2024-02-28T05:08:25;5.20;96.60
35463;DHT22;21578;47.892;9.970;2024-02-28T05:13:14;5.10;96.60
35463;DHT22;21578;47.892;9.970;2024-02-28T05:18:02;5.10;96.60
35463;DHT22;21578;47.892;9.970;2024-02-28T05:22:49;5.10;96.60
35463;DHT22;21578;47.892;9.970;2024-02-28T05:27:35;5.10;96.60
35463;DHT22;21578;47.892;9.970;2024-02-28T05:32:22;5.10;96.60
35463;DHT22;21578;47.892;9.970;2024-02-28T05:37:10;5.10;96.60
35463;DHT22;21578;47.892;9.970;2024-02-28T05:41:57;5.10;96.60
35463;DHT22;21578;47.892;9.970;2024-02-28T05:46:44;5.10;96.60
35463;DHT22;21578;47.892;9.970;2024-02-28T05:51:30;5.10;96.60
35463;DHT22;21578;47.892;9.970;2024-02-28T05:56:18;5.00;96.60
35463;DHT22;21578;47.892;9.970;2024-02-28T06:01:06;5.00;96.60
35463;DHT22;21578;47.892;9.970;2024-02-28T06:05:53;5.00;96.60
35463;DHT22;21578;47.892;9.970;2024-02-28T06:10:43;5.00;96.60
35463;DHT22;21578;47.892;9.970;2024-02-28T06:15:33;5.00;96.60
35463;DHT22;21578;47.892;9.970;2024-02-28T06:20:20;5.00;96.60
35463;DHT22;21578;47.892;9.970;2024-02-28T06:25:07;5.00;96.60
35463;DHT22;21578;47.892;9.970;2024-02-28T06:30:04;5.00;96.60
35463;DHT22;21578;47.892;9.970;2024-02-28T06:34:52;4.90;96.60
35463;DHT22;21578;47.892;9.970;2024-02-28T06:39:39;4.90;96.60
35463;DHT22;21578;47.892;9.970;2024-02-28T06:44:25;5.00;96.60
35463;DHT22;21578;47.892;9.970;2024-02-28T06:49:12;5.00;96.60
35463;DHT22;21578;47.892;9.970;2024-02-28T06:54:00;5.00;96.60
35463;DHT22;21578;47.892;9.970;2024-02-28T06:58:47;4.90;96.60
35463;DHT22;21578;47.892;9.970;2024-02-28T07:03:33;4.90;96.60
35463;DHT22;21578;47.892;9.970;2024-02-28T07:08:20;5.00;96.60
35463;DHT22;21578;47.892;9.970;2024-02-28T07:13:08;5.00;96.60
35463;DHT22;21578;47.892;9.970;2024-02-28T07:17:55;5.00;96.60
35463;DHT22;21578;47.892;9.970;2024-02-28T07:22:42;5.00;96.60
35463;DHT22;21578;47.892;9.970;2024-02-28T07:27:29;4.90;96.60
35463;DHT22;21578;47.892;9.970;2024-02-28T07:32:17;4.90;96.60
35463;DHT22;21578;47.892;9.970;2024-02-28T07:37:04;4.90;96.60
35463;DHT22;21578;47.892;9.970;2024-02-28T07:41:50;4.90;96.60
35463;DHT22;21578;47.892;9.970;2024-02-28T07:46:37;4.90;96.60
35463;DHT22;21578;47.892;9.970;2024-02-28T07:51:26;4.90;96.60
35463;DHT22;21578;47.892;9.970;2024-02-28T07:56:15;5.00;96.60
35463;DHT22;21578;47.892;9.970;2024-02-28T08:01:03;5.00;96.60
35463;DHT22;21578;47.892;9.970;2024-02-28T08:05:50;5.00;96.60
35463;DHT22;21578;47.892;9.970;2024-02-28T08:10:38;4.90;96.60
35463;DHT22;21578;47.892;9.970;2024-02-28T08:15:25;4.90;96.60
35463;DHT22;21578;47.892;9.970;2024-02-28T08:20:12;4.90;96.60
35463;DHT22;21578;47.892;9.970;2024-02-28T08:24:59;4.80;96.60
35463;DHT22;21578;47.892;9.970;2024-02-28T08:29:47;4.70;96.60
35463;DHT22;21578;47.892;9.970;2024-02-28T08:34:33;4.70;96.60
35463;DHT22;21578;47.892;9.970;2024-02-28T08:39:20;4.70;96.60
35463;DHT22;21578;47.892;9.970;2024-02-28T08:44:08;4.80;96.60
35463;DHT22;21578;47.892;9.970;2024-02-28T08:48:56;4.70;96.60
35463;DHT22;21578;47.892;9.970;2024-02-28T08:53:43;4.80;96.60
35463;DHT22;21578;47.892;9.970;2024-02-28T08:58:30;4.80;96.60
35463;DHT22;21578;47.892;9.970;2024-02-28T09:03:16;4.80;96.60
35463;DHT22;21578;47.892;9.970;2024-02-28T09:08:06;4.90;96.60
35463;DHT22;21578;47.892;9.970;2024-02-28T09:12:53;5.00;96.60
35463;DHT22;21578;47.892;9.970;2024-02-28T09:17:40;5.00;96.60
35463;DHT22;21578;47.892;9.970;2024-02-28T09:22:27;5.10;96.60
35463;DHT22;21578;47.892;9.970;2024-02-28T09:27:15;5.20;96.60
35463;DHT22;21578;47.892;9.970;2024-02-28T09:32:04;5.30;96.60
35463;DHT22;21578;47.892;9.970;2024-02-28T09:36:50;5.40;96.60
35463;DHT22;21578;47.892;9.970;2024-02-28T09:41:37;5.40;96.60
35463;DHT22;21578;47.892;9.970;2024-02-28T09:46:25;5.60;96.60
35463;DHT22;21578;47.892;9.970;2024-02-28T09:51:13;5.60;96.60
35463;DHT22;21578;47.892;9.970;2024-02-28T09:56:00;5.60;96.60
35463;DHT22;21578;47.892;9.970;2024-02-28T10:00:47;5.70;96.60
35463;DHT22;21578;47.892;9.970;2024-02-28T10:05:36;5.80;96.60
35463;DHT22;21578;47.892;9.970;2024-02-28T10:10:24;5.90;96.60
35463;DHT22;21578;47.892;9.970;2024-02-28T10:15:11;5.90;96.60
35463;DHT22;21578;47.892;9.970;2024-02-28T10:19:58;5.90;96.60
35463;DHT22;21578;47.892;9.970;2024-02-28T10:24:46;6.00;96.60
35463;DHT22;21578;47.892;9.970;2024-02-28T10:29:33;6.20;96.60
35463;DHT22;21578;47.892;9.970;2024-02-28T10:34:19;6.10;96.60
35463;DHT22;21578;47.892;9.970;2024-02-28T10:39:06;6.00;96.60
35463;DHT22;21578;47.892;9.970;2024-02-28T10:43:56;6.00;96.60
35463;DHT22;21578;47.892;9.970;2024-02-28T10:48:42;5.80;96.60
35463;DHT22;21578;47.892;9.970;2024-02-28T10:53:37;5.90;96.60
35463;DHT22;21578;47.892;9.970;2024-02-28T10:58:24;6.00;96.60
35463;DHT22;21578;47.892;9.970;2024-02-28T11:03:16;6.00;96.60
35463;DHT22;21578;47.892;9.970;2024-02-28T11:08:05;6.00;96.60
35463;DHT22;21578;47.892;9.970;2024-02-28T11:12:55;5.90;96.60
35463;DHT22;21578;47.892;9.970;2024-02-28T11:17:41;5.90;96.60
35463;DHT22;21578;47.892;9.970;2024-02-28T11:22:30;5.90;96.60
35463;DHT22;21578;47.892;9.970;2024-02-28T11:27:20;5.70;96.60
35463;DHT22;21578;47.892;9.970;2024-02-28T11:32:07;5.60;96.60
35463;DHT22;21578;47.892;9.970;2024-02-28T11:36:55;5.60;96.60
35463;DHT22;21578;47.892;9.970;2024-02-28T11:41:45;5.50;96.60
35463;DHT22;21578;47.892;9.970;2024-02-28T11:46:32;5.50;96.60
35463;DHT22;21578;47.892;9.970;2024-02-28T11:51:22;5.40;96.60
35463;DHT22;21578;47.892;9.970;2024-02-28T11:56:09;5.40;96.60
35463;DHT22;21578;47.892;9.970;2024-02-28T12:00:57;5.40;96.60
35463;DHT22;21578;47.892;9.970;2024-02-28T12:05:44;5.40;96.60
35463;DHT22;21578;47.892;9.970;2024-02-28T12:10:31;5.40;96.60
35463;DHT22;21578;47.892;9.970;2024-02-28T12:15:19;5.40;96.60
35463;DHT22;21578;47.892;9.970;2024-02-28T12:20:08;5.50;96.60
35463;DHT22;21578;47.892;9.970;2024-02-28T12:24:55;5.40;96.60
35463;DHT22;21578;47.892;9.970;2024-02-28T12:29:42;5.50;96.60
35463;DHT22;21578;47.892;9.970;2024-02-28T12:34:28;5.40;96.60
35463;DHT22;21578;47.892;9.970;2024-02-28T12:39:16;5.30;96.60
35463;DHT22;21578;47.892;9.970;2024-02-28T12:44:03;5.30;96.60
35463;DHT22;21578;47.892;9.970;2024-02-28T12:48:50;5.30;96.60
35463;DHT22;21578;47.892;9.970;2024-02-28T12:53:37;5.30;96.60
35463;DHT22;21578;47.892;9.970;2024-02-28T12:58:25;5.40;96.60
35463;DHT22;21578;47.892;9.970;2024-02-28T13:03:11;5.50;96.60
35463;DHT22;21578;47.892;9.970;2024-02-28T13:07:58;5.40;96.60
35463;DHT22;21578;47.892;9.970;2024-02-28T13:12:45;5.50;96.60
35463;DHT22;21578;47.892;9.970;2024-02-28T13:17:33;5.60;96.60
35463;DHT22;21578;47.892;9.970;2024-02-28T13:22:19;5.70;96.60
35463;DHT22;21578;47.892;9.970;2024-02-28T13:27:06;5.80;96.60
35463;DHT22;21578;47.892;9.970;2024-02-28T13:31:53;5.90;96.60
35463;DHT22;21578;47.892;9.970;2024-02-28T13:36:41;6.00;96.60
35463;DHT22;21578;47.892;9.970;2024-02-28T13:41:28;6.00;96.60
35463;DHT22;21578;47.892;9.970;2024-02-28T13:46:15;6.00;96.60
35463;DHT22;21578;47.892;9.970;2024-02-28T13:51:05;6.00;96.60
35463;DHT22;21578;47.892;9.970;2024-02-28T13:55:53;6.10;96.60
35463;DHT22;21578;47.892;9.970;2024-02-28T14:00:40;6.20;96.60
35463;DHT22;21578;47.892;9.970;2024-02-28T14:05:27;6.10;96.60
35463;DHT22;21578;47.892;9.970;2024-02-28T14:10:14;6.30;96.60
35463;DHT22;21578;47.892;9.970;2024-02-28T14:15:03;6.30;96.60
35463;DHT22;21578;47.892;9.970;2024-02-28T14:19:50;6.30;96.60
35463;DHT22;21578;47.892;9.970;2024-02-28T14:24:37;6.40;96.60
35463;DHT22;21578;47.892;9.970;2024-02-28T14:29:24;6.60;96.60
35463;DHT22;21578;47.892;9.970;2024-02-28T14:34:12;6.60;96.60
35463;DHT22;21578;47.892;9.970;2024-02-28T14:38:59;6.50;96.60
35463;DHT22;21578;47.892;9.970;2024-02-28T14:43:45;6.40;96.60
35463;DHT22;21578;47.892;9.970;2024-02-28T14:53:23;6.50;96.60
35463;DHT22;21578;47.892;9.970;2024-02-28T14:58:10;6.50;96.60
35463;DHT22;21578;47.892;9.970;2024-02-28T15:02:57;6.40;96.60
35463;DHT22;21578;47.892;9.970;2024-02-28T15:07:44;6.40;96.60
35463;DHT22;21578;47.892;9.970;2024-02-28T15:12:33;6.40;96.60
35463;DHT22;21578;47.892;9.970;2024-02-28T15:17:20;6.50;96.60
35463;DHT22;21578;47.892;9.970;2024-02-28T15:22:07;6.50;96.60
35463;DHT22;21578;47.892;9.970;2024-02-28T15:26:54;6.50;96.60
35463;DHT22;21578;47.892;9.970;2024-02-28T15:31:42;6.40;96.60
35463;DHT22;21578;47.892;9.970;2024-02-28T15:36:29;6.40;96.60
35463;DHT22;21578;47.892;9.970;2024-02-28T15:41:16;6.40;96.60
35463;DHT22;21578;47.892;9.970;2024-02-28T15:46:04;6.50;96.60
35463;DHT22;21578;47.892;9.970;2024-02-28T15:50:52;6.50;96.60
35463;DHT22;21578;47.892;9.970;2024-02-28T15:55:40;6.60;96.60
35463;DHT22;21578;47.892;9.970;2024-02-28T16:00:27;6.50;96.60
35463;DHT22;21578;47.892;9.970;2024-02-28T16:05:17;6.50;96.60
35463;DHT22;21578;47.892;9.970;2024-02-28T16:10:07;6.50;96.60
35463;DHT22;21578;47.892;9.970;2024-02-28T16:14:54;6.40;96.60
35463;DHT22;21578;47.892;9.970;2024-02-28T16:19:42;6.40;96.60
35463;DHT22;21578;47.892;9.970;2024-02-28T16:24:29;6.30;96.60
35463;DHT22;21578;47.892;9.970;2024-02-28T16:29:17;6.40;96.60
35463;DHT22;21578;47.892;9.970;2024-02-28T16:34:05;6.40;96.60
35463;DHT22;21578;47.892;9.970;2024-02-28T16:38:52;6.20;96.60
35463;DHT22;21578;47.892;9.970;2024-02-28T16:43:41;6.10;96.60
35463;DHT22;21578;47.892;9.970;2024-02-28T16:48:32;6.00;96.60
35463;DHT22;21578;47.892;9.970;2024-02-28T16:53:19;6.00;96.60
35463;DHT22;21578;47.892;9.970;2024-02-28T16:58:07;5.90;96.60
35463;DHT22;21578;47.892;9.970;2024-02-28T17:02:54;5.90;96.60
35463;DHT22;21578;47.892;9.970;2024-02-28T17:07:42;5.90;96.60
35463;DHT22;21578;47.892;9.970;2024-02-28T17:12:29;5.90;96.60
35463;DHT22;21578;47.892;9.970;2024-02-28T17:17:16;5.80;96.60
35463;DHT22;21578;47.892;9.970;2024-02-28T17:22:04;5.80;96.60
35463;DHT22;21578;47.892;9.970;2024-02-28T17:26:53;5.80;96.60
35463;DHT22;21578;47.892;9.970;2024-02-28T17:31:41;5.80;96.60
35463;DHT22;21578;47.892;9.970;2024-02-28T17:36:29;5.80;96.60
35463;DHT22;21578;47.892;9.970;2024-02-28T17:41:16;5.80;96.60
35463;DHT22;21578;47.892;9.970;2024-02-28T17:46:04;5.70;96.60
35463;DHT22;21578;47.892;9.970;2024-02-28T17:50:51;5.60;96.60
35463;DHT22;21578;47.892;9.970;2024-02-28T17:55:38;5.40;96.60
35463;DHT22;21578;47.892;9.970;2024-02-28T18:00:25;5.40;96.60
35463;DHT22;21578;47.892;9.970;2024-02-28T18:05:14;5.40;96.60
35463;DHT22;21578;47.892;9.970;2024-02-28T18:10:01;5.40;96.60
35463;DHT22;21578;47.892;9.970;2024-02-28T18:14:49;5.40;96.60
35463;DHT22;21578;47.892;9.970;2024-02-28T18:19:37;5.50;96.60
35463;DHT22;21578;47.892;9.970;2024-02-28T18:24:26;5.50;96.60
35463;DHT22;21578;47.892;9.970;2024-02-28T18:29:13;5.50;96.60
35463;DHT22;21578;47.892;9.970;2024-02-28T18:33:59;5.50;96.60
35463;DHT22;21578;47.892;9.970;2024-02-28T18:38:46;5.50;96.60
35463;DHT22;21578;47.892;9.970;2024-02-28T18:43:36;5.50;96.60
35463;DHT22;21578;47.892;9.970;2024-02-28T18:48:24;5.50;96.60
35463;DHT22;21578;47.892;9.970;2024-02-28T18:53:12;5.50;96.60
35463;DHT22;21578;47.892;9.970;2024-02-28T18:57:59;5.50;96.60
35463;DHT22;21578;47.892;9.970;2024-02-28T19:02:48;5.50;96.60
35463;DHT22;21578;47.892;9.970;2024-02-28T19:07:35;5.40;96.60
35463;DHT22;21578;47.892;9.970;2024-02-28T19:12:22;5.40;96.60
35463;DHT22;21578;47.892;9.970;2024-02-28T19:17:09;5.40;96.60
35463;DHT22;21578;47.892;9.970;2024-02-28T19:21:57;5.40;96.60
35463;DHT22;21578;47.892;9.970;2024-02-28T19:26:44;5.40;96.60
35463;DHT22;21578;47.892;9.970;2024-02-28T19:31:31;5.40;96.60
35463;DHT22;21578;47.892;9.970;2024-02-28T19:36:18;5.40;96.60
35463;DHT22;21578;47.892;9.970;2024-02-28T19:41:07;5.40;96.60
35463;DHT22;21578;47.892;9.970;2024-02-28T19:45:54;5.40;96.60
35463;DHT22;21578;47.892;9.970;2024-02-28T19:50:41;5.40;96.60
35463;DHT22;21578;47.892;9.970;2024-02-28T19:55:28;5.40;96.60
35463;DHT22;21578;47.892;9.970;2024-02-28T20:00:17;5.40;96.60
35463;DHT22;21578;47.892;9.970;2024-02-28T20:05:04;5.40;96.60
35463;DHT22;21578;47.892;9.970;2024-02-28T20:09:52;5.40;96.60
35463;DHT22;21578;47.892;9.970;2024-02-28T20:14:39;5.50;96.60
35463;DHT22;21578;47.892;9.970;2024-02-28T20:19:28;5.40;96.60
35463;DHT22;21578;47.892;9.970;2024-02-28T20:24:15;5.40;96.60
35463;DHT22;21578;47.892;9.970;2024-02-28T20:29:02;5.40;96.60
35463;DHT22;21578;47.892;9.970;2024-02-28T20:33:49;5.40;96.60
35463;DHT22;21578;47.892;9.970;2024-02-28T20:38:37;5.40;96.60
35463;DHT22;21578;47.892;9.970;2024-02-28T20:43:24;5.30;96.60
35463;DHT22;21578;47.892;9.970;2024-02-28T20:48:11;5.30;96.60
35463;DHT22;21578;47.892;9.970;2024-02-28T21:25:45;5.20;96.60
35463;DHT22;21578;47.892;9.970;2024-02-28T21:30:32;5.30;96.60
35463;DHT22;21578;47.892;9.970;2024-02-28T21:35:19;5.20;96.60
35463;DHT22;21578;47.892;9.970;2024-02-28T21:40:06;5.30;96.60
35463;DHT22;21578;47.892;9.970;2024-02-28T21:44:55;5.30;96.60
35463;DHT22;21578;47.892;9.970;2024-02-28T21:49:42;5.20;96.60
35463;DHT22;21578;47.892;9.970;2024-02-28T21:54:29;5.20;96.60
35463;DHT22;21578;47.892;9.970;2024-02-28T21:59:16;5.20;96.60
35463;DHT22;21578;47.892;9.970;2024-02-28T22:04:04;5.20;96.60
35463;DHT22;21578;47.892;9.970;2024-02-28T22:08:51;5.20;96.60
35463;DHT22;21578;47.892;9.970;2024-02-28T22:13:42;5.20;96.60
35463;DHT22;21578;47.892;9.970;2024-02-28T22:18:29;5.20;96.60
35463;DHT22;21578;47.892;9.970;2024-02-28T22:23:17;5.20;96.60
35463;DHT22;21578;47.892;9.970;2024-02-28T22:28:04;5.20;96.60
35463;DHT22;21578;47.892;9.970;2024-02-28T22:32:51;5.20;96.60
35463;DHT22;21578;47.892;9.970;2024-02-28T22:37:38;5.20;96.60
35463;DHT22;21578;47.892;9.970;2024-02-28T22:42:26;5.10;96.60
35463;DHT22;21578;47.892;9.970;2024-02-28T22:47:13;5.10;96.60
35463;DHT22;21578;47.892;9.970;2024-02-28T22:52:00;5.10;96.60
35463;DHT22;21578;47.892;9.970;2024-02-28T22:56:47;5.20;96.60
35463;DHT22;21578;47.892;9.970;2024-02-28T23:01:36;5.10;96.60
35463;DHT22;21578;47.892;9.970;2024-02-28T23:06:23;5.10;96.60
35463;DHT22;21578;47.892;9.970;2024-02-28T23:11:10;5.10;96.60
35463;DHT22;21578;47.892;9.970;2024-02-28T23:15:56;5.20;96.60
35463;DHT22;21578;47.892;9.970;2024-02-28T23:20:45;5.20;96.60
35463;DHT22;21578;47.892;9.970;2024-02-28T23:25:32;5.10;96.60
35463;DHT22;21578;47.892;9.970;2024-02-28T23:30:20;5.10;96.60
35463;DHT22;21578;47.892;9.970;2024-02-28T23:35:08;5.10;96.60
35463;DHT22;21578;47.892;9.970;2024-02-28T23:39:56;5.10;96.60
35463;DHT22;21578;47.892;9.970;2024-02-28T23:44:43;5.00;96.60
35463;DHT22;21578;47.892;9.970;2024-02-28T23:49:30;5.10;96.60
35463;DHT22;21578;47.892;9.970;2024-02-28T23:54:17;5.10;96.60
35463;DHT22;21578;47.892;9.970;2024-02-28T23:59:05;5.00;96.60
